Time;durP1;ratioP1;P1;durP2;ratioP2;P2;SDS_P1;SDS_P2;PMS_P1;PMS_P2;Temp;Humidity;BMP_temperature;BMP_pressure;BME280_temperature;BME280_humidity;BME280_pressure;Samples;Min_cycle;Max_cycle;Signal;HPM_P1;HPM_P2
2022/07/07 00:02:23;;;;;;;3.67;0.70;;;15.20;91.60;;;;;;5039516;28;20052;-66
2022/07/07 00:04:51;;;;;;;1.95;0.47;;;15.10;92.10;;;;;;5046877;28;20051;-66
2022/07/07 00:07:19;;;;;;;2.20;0.60;;;15.10;92.80;;;;;;5040391;28;20508;-66
2022/07/07 00:09:46;;;;;;;6.25;1.00;;;15.00;93.40;;;;;;5027276;28;20558;-67
2022/07/07 00:12:14;;;;;;;5.00;0.70;;;15.00;93.10;;;;;;5030140;28;20071;-69
2022/07/07 00:14:41;;;;;;;3.10;0.50;;;15.00;93.00;;;;;;5037797;28;20025;-68
2022/07/07 00:17:09;;;;;;;2.35;1.00;;;15.00;92.50;;;;;;5034056;28;20522;-66
2022/07/07 00:19:36;;;;;;;2.92;0.57;;;15.00;92.40;;;;;;5041829;28;20097;-66
2022/07/07 00:22:03;;;;;;;3.22;0.60;;;15.00;91.90;;;;;;5039420;28;20441;-67
2022/07/07 00:24:30;;;;;;;4.75;0.80;;;15.00;92.90;;;;;;5030728;28;20120;-67
2022/07/07 00:26:58;;;;;;;3.45;0.70;;;15.00;92.90;;;;;;5028376;28;20045;-67
2022/07/07 00:29:25;;;;;;;5.00;0.68;;;15.00;92.90;;;;;;5039331;28;20398;-66
2022/07/07 00:31:52;;;;;;;3.00;0.70;;;15.00;92.60;;;;;;5026810;28;20033;-66
2022/07/07 00:34:19;;;;;;;2.78;0.80;;;15.10;92.40;;;;;;5037811;28;20053;-67
2022/07/07 00:36:47;;;;;;;6.82;0.70;;;15.20;92.00;;;;;;5045496;28;20033;-67
2022/07/07 00:39:14;;;;;;;3.70;1.27;;;15.30;91.50;;;;;;5042909;28;20703;-66
2022/07/07 00:41:42;;;;;;;4.65;0.60;;;15.40;91.80;;;;;;5047069;28;20025;-67
2022/07/07 00:44:15;;;;;;;3.40;0.80;;;15.60;91.40;;;;;;5048551;28;20053;-67
2022/07/07 00:46:48;;;;;;;0.88;0.50;;;15.70;90.90;;;;;;5046334;28;20029;-67
2022/07/07 00:49:17;;;;;;;4.15;0.80;;;15.90;91.30;;;;;;5030822;28;20111;-66
2022/07/07 00:51:45;;;;;;;5.75;0.80;;;16.10;90.50;;;;;;5036636;28;20108;-65
2022/07/07 00:54:12;;;;;;;2.22;0.50;;;16.20;89.80;;;;;;5040185;28;20025;-66
2022/07/07 00:56:40;;;;;;;3.63;0.60;;;16.40;88.50;;;;;;5044413;28;20474;-67
2022/07/07 00:59:08;;;;;;;2.22;0.50;;;16.50;88.30;;;;;;5041891;28;20029;-67
2022/07/07 01:01:40;;;;;;;2.00;0.68;;;16.70;87.10;;;;;;5039193;28;20025;-66
2022/07/07 01:04:17;;;;;;;3.47;0.70;;;16.80;87.10;;;;;;5040757;28;20032;-67
2022/07/07 01:06:44;;;;;;;2.47;0.40;;;16.90;83.80;;;;;;5052266;28;20116;-66
2022/07/07 01:09:14;;;;;;;1.27;0.35;;;17.00;82.80;;;;;;5046227;28;20025;-67
2022/07/07 01:11:54;;;;;;;4.65;1.35;;;17.00;82.30;;;;;;5038134;28;20035;-67
2022/07/07 01:14:22;;;;;;;3.50;0.88;;;17.10;80.60;;;;;;5045092;28;20372;-67
2022/07/07 01:16:50;;;;;;;2.75;1.17;;;17.10;81.90;;;;;;5047241;28;20043;-67
2022/07/07 01:19:19;;;;;;;1.98;1.08;;;17.20;81.50;;;;;;5047785;28;20032;-68
2022/07/07 01:22:15;;;;;;;2.70;0.47;;;17.30;80.90;;;;;;5045870;28;20032;-66
2022/07/07 01:24:43;;;;;;;2.30;0.32;;;17.40;81.50;;;;;;5043101;28;20029;-66
2022/07/07 01:27:14;;;;;;;2.80;0.60;;;17.50;78.60;;;;;;5038754;28;20382;-66
2022/07/07 01:29:47;;;;;;;2.60;0.52;;;17.60;78.90;;;;;;5037230;28;20021;-65
2022/07/07 01:32:15;;;;;;;1.80;0.68;;;17.80;80.30;;;;;;5041546;28;20394;-66
2022/07/07 01:34:45;;;;;;;7.07;0.88;;;17.90;77.70;;;;;;5038710;28;20120;-67
2022/07/07 01:37:13;;;;;;;2.17;0.50;;;18.00;78.60;;;;;;5044850;28;20075;-65
2022/07/07 01:39:41;;;;;;;2.88;0.85;;;18.00;74.00;;;;;;5046613;28;20036;-64
2022/07/07 01:42:10;;;;;;;1.88;0.32;;;17.80;74.20;;;;;;5054816;28;20083;-65
2022/07/07 01:44:42;;;;;;;4.25;1.13;;;17.70;76.80;;;;;;5051281;28;20569;-64
2022/07/07 01:47:11;;;;;;;2.63;0.63;;;17.70;76.40;;;;;;5047845;28;20397;-68
2022/07/07 01:49:39;;;;;;;1.70;0.40;;;17.70;76.80;;;;;;5045658;28;20413;-67
2022/07/07 01:52:07;;;;;;;3.40;0.60;;;17.80;75.50;;;;;;5052343;28;20068;-66
2022/07/07 01:54:35;;;;;;;1.88;0.40;;;17.90;75.50;;;;;;5043526;28;20422;-66
2022/07/07 01:57:03;;;;;;;3.67;0.50;;;18.10;74.90;;;;;;5045448;28;20059;-66
2022/07/07 01:59:30;;;;;;;4.85;0.93;;;18.20;75.30;;;;;;5046612;28;20060;-68
2022/07/07 02:01:58;;;;;;;6.88;1.25;;;18.40;76.00;;;;;;5055183;28;20147;-66
2022/07/07 02:04:25;;;;;;;3.50;0.68;;;18.40;74.30;;;;;;5045113;28;20025;-67
2022/07/07 02:06:53;;;;;;;2.97;0.40;;;18.40;76.50;;;;;;5046097;28;20039;-67
2022/07/07 02:09:20;;;;;;;2.13;0.52;;;18.30;74.60;;;;;;5040641;28;20364;-67
2022/07/07 02:11:48;;;;;;;2.28;0.35;;;18.20;75.20;;;;;;5041674;28;20101;-68
2022/07/07 02:14:15;;;;;;;4.07;0.52;;;18.10;75.50;;;;;;5056348;28;20046;-67
2022/07/07 02:16:42;;;;;;;2.83;0.55;;;18.20;75.60;;;;;;5059733;28;20091;-68
2022/07/07 02:19:10;;;;;;;3.22;0.60;;;18.20;74.80;;;;;;5054159;28;20055;-68
2022/07/07 02:21:37;;;;;;;3.97;0.70;;;18.20;74.40;;;;;;5051311;28;20048;-67
2022/07/07 02:24:05;;;;;;;4.32;0.65;;;18.20;74.10;;;;;;5046837;28;20029;-67
2022/07/07 02:26:33;;;;;;;3.58;0.60;;;18.20;74.30;;;;;;5051144;28;20079;-67
2022/07/07 02:29:02;;;;;;;3.28;0.60;;;18.30;75.40;;;;;;5040450;28;20090;-67
2022/07/07 02:31:29;;;;;;;3.08;1.08;;;18.40;74.30;;;;;;5062088;28;20029;-67
2022/07/07 02:33:56;;;;;;;3.90;0.52;;;18.40;74.60;;;;;;5055370;28;20501;-66
2022/07/07 02:36:23;;;;;;;3.63;0.68;;;18.50;73.90;;;;;;5038228;28;20111;-66
2022/07/07 02:38:51;;;;;;;3.85;0.40;;;18.50;74.10;;;;;;5035885;28;20328;-68
2022/07/07 02:41:19;;;;;;;5.18;0.60;;;18.60;72.60;;;;;;5042631;28;20028;-67
2022/07/07 02:43:46;;;;;;;2.63;1.00;;;18.50;73.30;;;;;;5051557;28;20096;-67
2022/07/07 02:46:14;;;;;;;2.42;0.50;;;18.50;72.50;;;;;;5045256;28;20447;-67
2022/07/07 02:48:41;;;;;;;1.27;0.40;;;18.50;72.20;;;;;;5036350;28;20017;-67
2022/07/07 02:51:08;;;;;;;9.20;2.03;;;18.50;73.30;;;;;;5038605;28;20027;-66
2022/07/07 02:53:36;;;;;;;5.25;0.65;;;18.50;73.50;;;;;;5037703;28;20021;-67
2022/07/07 02:56:05;;;;;;;4.65;0.63;;;18.50;71.20;;;;;;5034863;28;20388;-66
2022/07/07 02:58:32;;;;;;;1.98;0.35;;;18.50;71.40;;;;;;5048940;28;20037;-67
2022/07/07 03:00:59;;;;;;;2.63;0.50;;;18.60;70.60;;;;;;5033026;28;20021;-67
2022/07/07 03:03:27;;;;;;;2.85;0.43;;;18.60;69.90;;;;;;5037200;28;20036;-67
2022/07/07 03:05:54;;;;;;;0.88;0.30;;;18.60;71.00;;;;;;5035952;28;20446;-65
2022/07/07 03:08:22;;;;;;;1.60;0.40;;;18.50;68.60;;;;;;5041199;28;20036;-65
2022/07/07 03:10:49;;;;;;;3.17;0.50;;;18.50;70.20;;;;;;5064673;28;20020;-67
2022/07/07 03:13:16;;;;;;;5.15;1.25;;;18.50;70.50;;;;;;5039081;28;20028;-66
2022/07/07 03:15:43;;;;;;;2.53;0.70;;;18.50;71.00;;;;;;5056822;28;20115;-65
2022/07/07 03:18:11;;;;;;;1.08;0.30;;;18.50;69.90;;;;;;5051276;28;20103;-66
2022/07/07 03:20:38;;;;;;;5.00;0.35;;;18.50;70.70;;;;;;5036356;28;20104;-68
2022/07/07 03:23:05;;;;;;;2.40;0.47;;;18.50;69.90;;;;;;5044610;28;20069;-67
2022/07/07 03:25:34;;;;;;;2.90;0.45;;;18.60;71.30;;;;;;5046875;28;20035;-66
2022/07/07 03:28:01;;;;;;;2.65;0.38;;;18.60;70.90;;;;;;5035302;28;20379;-67
2022/07/07 03:30:28;;;;;;;3.17;0.52;;;18.70;71.30;;;;;;5043392;28;20075;-67
2022/07/07 03:32:56;;;;;;;1.67;0.50;;;18.80;70.40;;;;;;5035848;28;20116;-66
2022/07/07 03:35:23;;;;;;;2.00;0.52;;;18.80;71.10;;;;;;5031343;28;20076;-66
2022/07/07 03:37:51;;;;;;;3.10;0.43;;;18.80;70.80;;;;;;5039888;28;20037;-67
2022/07/07 03:40:18;;;;;;;0.38;0.30;;;18.80;70.40;;;;;;5041310;28;20773;-66
2022/07/07 03:42:46;;;;;;;2.20;0.40;;;18.80;71.10;;;;;;5046642;28;20029;-65
2022/07/07 03:45:13;;;;;;;1.70;0.40;;;18.90;70.60;;;;;;5044955;28;20039;-66
2022/07/07 03:47:41;;;;;;;1.17;0.30;;;19.00;71.70;;;;;;5050471;28;20040;-67
2022/07/07 03:50:08;;;;;;;0.85;0.40;;;19.00;68.80;;;;;;5043833;28;20033;-66
2022/07/07 03:52:36;;;;;;;2.65;0.80;;;19.00;68.80;;;;;;5038742;28;20064;-68
2022/07/07 03:55:03;;;;;;;4.03;0.55;;;18.90;68.40;;;;;;5053507;28;20059;-66
2022/07/07 03:57:30;;;;;;;1.67;0.40;;;18.80;70.10;;;;;;5033082;28;20025;-67
2022/07/07 03:59:58;;;;;;;1.77;0.55;;;18.80;71.40;;;;;;5035975;28;20040;-67
2022/07/07 04:02:25;;;;;;;1.02;0.50;;;18.80;72.10;;;;;;5054934;28;20454;-66
2022/07/07 04:04:53;;;;;;;4.72;0.75;;;18.80;72.10;;;;;;5044091;28;20027;-66
2022/07/07 04:07:21;;;;;;;2.50;0.52;;;18.70;73.20;;;;;;5050458;28;20119;-66
2022/07/07 04:09:48;;;;;;;1.83;0.40;;;18.60;73.20;;;;;;5053801;28;20070;-67
2022/07/07 04:12:16;;;;;;;1.55;0.45;;;18.60;73.50;;;;;;5043757;28;20033;-66
2022/07/07 04:14:43;;;;;;;5.20;0.60;;;18.60;72.50;;;;;;5051884;28;20029;-67
2022/07/07 04:17:11;;;;;;;4.75;0.80;;;18.60;72.60;;;;;;5043477;28;20048;-67
2022/07/07 04:19:39;;;;;;;3.35;0.60;;;18.60;72.20;;;;;;5048152;28;20025;-67
2022/07/07 04:22:07;;;;;;;3.85;0.60;;;18.60;72.50;;;;;;5041409;28;20132;-67
2022/07/07 04:24:34;;;;;;;3.33;0.50;;;18.60;73.10;;;;;;5046691;28;20025;-66
2022/07/07 04:27:02;;;;;;;6.22;1.08;;;18.60;71.70;;;;;;5046361;28;20516;-66
2022/07/07 04:29:30;;;;;;;1.45;0.30;;;18.50;70.80;;;;;;5044569;28;20037;-66
2022/07/07 04:31:57;;;;;;;1.85;0.60;;;18.30;72.40;;;;;;5037252;28;20106;-66
2022/07/07 04:34:24;;;;;;;2.75;0.80;;;18.30;72.80;;;;;;5037198;28;20021;-67
2022/07/07 04:36:51;;;;;;;1.58;0.52;;;18.20;72.80;;;;;;5050867;28;20036;-66
2022/07/07 04:39:19;;;;;;;3.85;0.65;;;18.30;72.70;;;;;;5050555;28;20020;-66
2022/07/07 04:41:46;;;;;;;1.67;0.50;;;18.30;72.50;;;;;;5040061;28;20436;-66
2022/07/07 04:44:13;;;;;;;3.50;1.15;;;18.30;73.00;;;;;;5041857;28;20086;-66
2022/07/07 04:46:40;;;;;;;2.13;0.43;;;18.30;72.80;;;;;;5059885;28;20116;-66
2022/07/07 04:49:08;;;;;;;0.82;0.40;;;18.20;72.60;;;;;;5053438;28;20064;-66
2022/07/07 04:51:35;;;;;;;3.33;0.43;;;18.30;73.20;;;;;;5044624;28;20025;-67
2022/07/07 04:54:02;;;;;;;4.35;0.68;;;18.30;72.60;;;;;;5042130;28;20039;-67
2022/07/07 04:56:30;;;;;;;1.40;0.40;;;18.40;73.20;;;;;;5040007;28;20060;-67
2022/07/07 04:58:57;;;;;;;1.92;0.50;;;18.50;73.40;;;;;;5047783;28;20051;-66
2022/07/07 05:01:24;;;;;;;7.95;0.60;;;18.50;72.50;;;;;;5046555;28;20481;-66
2022/07/07 05:03:51;;;;;;;2.05;0.68;;;18.50;72.00;;;;;;5041913;28;20076;-67
2022/07/07 05:06:19;;;;;;;2.72;0.57;;;18.40;70.90;;;;;;5048279;28;20048;-67
2022/07/07 05:08:46;;;;;;;0.57;0.32;;;18.40;72.20;;;;;;5049695;28;20428;-66
2022/07/07 05:11:13;;;;;;;2.17;0.45;;;18.30;71.80;;;;;;5051824;28;20043;-66
2022/07/07 05:13:41;;;;;;;1.50;0.38;;;18.30;72.80;;;;;;5049560;28;20048;-67
2022/07/07 05:16:08;;;;;;;0.85;0.38;;;18.20;71.70;;;;;;5050489;28;20033;-66
2022/07/07 05:18:35;;;;;;;1.13;0.35;;;18.20;71.20;;;;;;5047182;28;20703;-66
2022/07/07 05:21:02;;;;;;;1.02;0.40;;;18.30;70.60;;;;;;5052565;28;20044;-66
2022/07/07 05:23:30;;;;;;;0.93;0.50;;;18.30;72.00;;;;;;5043505;28;20024;-66
2022/07/07 05:25:57;;;;;;;3.92;0.80;;;18.30;71.00;;;;;;5052384;28;20045;-66
2022/07/07 05:28:24;;;;;;;1.25;0.40;;;18.30;71.00;;;;;;5045700;28;20497;-66
2022/07/07 05:30:52;;;;;;;2.08;0.35;;;18.40;71.70;;;;;;5047459;28;20033;-67
2022/07/07 05:33:19;;;;;;;3.25;0.60;;;18.50;71.70;;;;;;5046430;28;20032;-66
2022/07/07 05:35:46;;;;;;;3.63;0.50;;;18.50;71.80;;;;;;5035950;28;20026;-66
2022/07/07 05:38:14;;;;;;;4.47;0.80;;;18.60;71.90;;;;;;5047014;28;20482;-66
2022/07/07 05:40:41;;;;;;;3.70;0.40;;;18.60;71.10;;;;;;5045630;28;20139;-66
2022/07/07 05:43:08;;;;;;;2.90;0.50;;;18.50;70.50;;;;;;5046330;28;20033;-67
2022/07/07 05:45:36;;;;;;;5.63;0.68;;;18.50;71.60;;;;;;5048367;28;20355;-66
2022/07/07 05:48:03;;;;;;;2.88;0.73;;;18.40;71.80;;;;;;5044534;28;20048;-68
2022/07/07 05:50:30;;;;;;;1.13;0.50;;;18.40;71.30;;;;;;5048221;28;20028;-67
2022/07/07 05:52:58;;;;;;;0.90;0.40;;;18.30;72.20;;;;;;5049524;28;20048;-67
2022/07/07 05:55:25;;;;;;;1.17;0.40;;;18.10;72.40;;;;;;5049726;28;20021;-67
2022/07/07 05:57:52;;;;;;;1.58;0.47;;;18.00;73.10;;;;;;5055632;28;20719;-66
2022/07/07 06:00:19;;;;;;;3.03;0.60;;;17.90;74.20;;;;;;5063540;28;20024;-67
2022/07/07 06:02:46;;;;;;;1.88;0.40;;;17.80;74.30;;;;;;5050044;28;20025;-66
2022/07/07 06:05:14;;;;;;;6.43;0.65;;;17.70;74.70;;;;;;5056084;28;20380;-67
2022/07/07 06:07:41;;;;;;;0.93;0.40;;;17.60;73.60;;;;;;5059500;28;20056;-66
2022/07/07 06:10:10;;;;;;;1.23;0.50;;;17.50;73.10;;;;;;5049572;28;20432;-67
2022/07/07 06:12:38;;;;;;;2.47;0.77;;;17.50;75.50;;;;;;5049478;28;20508;-66
2022/07/07 06:15:09;;;;;;;2.85;0.65;;;17.30;74.90;;;;;;5053138;28;20029;-67
2022/07/07 06:17:37;;;;;;;4.20;1.25;;;17.20;76.60;;;;;;5053608;28;20060;-68
2022/07/07 06:20:05;;;;;;;14.82;2.67;;;17.10;81.00;;;;;;5042647;28;20120;-68
2022/07/07 06:22:32;;;;;;;3.10;1.08;;;16.90;82.90;;;;;;5048106;28;20055;-66
2022/07/07 06:25:00;;;;;;;7.22;1.48;;;16.60;84.60;;;;;;5050337;28;20025;-67
2022/07/07 06:27:27;;;;;;;11.05;1.35;;;16.40;86.10;;;;;;5049535;28;20508;-68
2022/07/07 06:29:57;;;;;;;12.57;2.47;;;16.30;86.70;;;;;;5057600;28;20040;-67
2022/07/07 06:32:25;;;;;;;10.20;2.97;;;16.10;87.50;;;;;;5054020;28;20028;-68
2022/07/07 06:34:55;;;;;;;11.38;2.60;;;15.90;88.60;;;;;;5059807;28;20029;-68
2022/07/07 06:37:22;;;;;;;9.75;2.63;;;15.80;89.30;;;;;;5050768;28;20029;-67
2022/07/07 06:39:49;;;;;;;5.35;1.35;;;15.60;90.00;;;;;;5049069;28;20391;-66
2022/07/07 06:42:17;;;;;;;5.60;1.60;;;15.50;90.40;;;;;;5049755;28;20021;-67
2022/07/07 06:44:44;;;;;;;9.27;1.83;;;15.40;90.50;;;;;;5047024;28;20032;-65
2022/07/07 06:47:11;;;;;;;10.23;1.58;;;15.30;90.40;;;;;;5057088;28;20028;-65
2022/07/07 06:49:38;;;;;;;6.57;1.30;;;15.20;90.10;;;;;;5049621;28;20465;-67
2022/07/07 06:52:06;;;;;;;8.98;1.70;;;15.10;90.10;;;;;;5044938;28;20028;-67
2022/07/07 06:54:33;;;;;;;13.30;1.55;;;14.90;90.30;;;;;;5040552;28;20021;-67
2022/07/07 06:57:01;;;;;;;4.85;1.48;;;14.80;90.40;;;;;;5035530;28;20034;-66
2022/07/07 06:59:28;;;;;;;12.57;2.13;;;14.70;90.70;;;;;;5032707;28;20128;-66
2022/07/07 07:01:55;;;;;;;6.50;1.38;;;14.60;90.90;;;;;;5041468;28;20586;-66
2022/07/07 07:04:22;;;;;;;11.65;1.50;;;14.60;90.90;;;;;;5043365;28;20024;-67
2022/07/07 07:06:49;;;;;;;9.32;1.60;;;14.50;91.10;;;;;;5055439;28;20061;-66
2022/07/07 07:09:17;;;;;;;7.65;1.27;;;14.40;91.20;;;;;;5046671;28;20029;-67
2022/07/07 07:11:45;;;;;;;7.85;1.23;;;14.40;91.40;;;;;;5049312;28;20487;-66
2022/07/07 07:14:13;;;;;;;10.27;1.60;;;14.30;91.60;;;;;;5049379;28;20401;-67
2022/07/07 07:16:40;;;;;;;7.15;1.17;;;14.30;91.50;;;;;;5035257;28;20041;-68
2022/07/07 07:19:08;;;;;;;3.83;1.42;;;14.20;91.80;;;;;;5041505;28;20029;-64
2022/07/07 07:21:35;;;;;;;6.25;1.42;;;14.20;91.80;;;;;;5039340;28;20024;-65
2022/07/07 07:24:02;;;;;;;5.90;1.30;;;14.10;92.10;;;;;;5028443;28;20110;-64
2022/07/07 07:26:29;;;;;;;5.22;1.48;;;14.10;92.30;;;;;;5032703;28;20079;-64
2022/07/07 07:28:57;;;;;;;6.55;1.55;;;14.00;92.40;;;;;;5030801;28;20069;-64
2022/07/07 07:31:24;;;;;;;13.07;1.65;;;13.80;92.50;;;;;;5035052;28;20104;-63
2022/07/07 07:33:54;;;;;;;9.02;1.85;;;13.80;92.80;;;;;;5037867;28;20131;-67
2022/07/07 07:36:21;;;;;;;6.55;1.70;;;13.70;92.80;;;;;;5028537;28;20026;-65
2022/07/07 07:38:50;;;;;;;9.68;4.70;;;13.50;92.70;;;;;;5027311;28;20037;-65
2022/07/07 07:41:19;;;;;;;9.20;2.40;;;13.40;93.20;;;;;;5026491;28;20033;-65
2022/07/07 07:43:46;;;;;;;8.35;2.15;;;13.30;93.50;;;;;;5027601;28;20367;-65
2022/07/07 07:46:14;;;;;;;16.35;2.10;;;13.10;94.10;;;;;;5027878;28;20462;-65
2022/07/07 07:48:41;;;;;;;9.95;1.77;;;13.00;94.40;;;;;;5027931;28;20080;-65
2022/07/07 07:51:08;;;;;;;9.50;2.08;;;13.00;94.40;;;;;;5027245;28;20021;-65
2022/07/07 07:53:35;;;;;;;6.90;1.80;;;12.90;94.60;;;;;;5027522;28;20029;-65
2022/07/07 07:56:03;;;;;;;11.30;1.83;;;12.80;94.20;;;;;;5027284;28;20029;-66
2022/07/07 07:58:30;;;;;;;9.93;2.53;;;12.70;94.20;;;;;;5024990;28;20025;-65
2022/07/07 08:00:58;;;;;;;11.77;4.13;;;12.70;94.40;;;;;;5027318;28;20021;-66
2022/07/07 08:03:25;;;;;;;9.73;4.78;;;12.70;94.30;;;;;;5027638;28;20525;-65
2022/07/07 08:05:53;;;;;;;12.23;4.68;;;12.50;94.30;;;;;;5027283;28;20041;-65
2022/07/07 08:08:20;;;;;;;9.60;4.53;;;12.50;94.40;;;;;;5028171;28;20037;-66
2022/07/07 08:10:47;;;;;;;7.47;3.35;;;12.50;94.50;;;;;;5041260;28;20030;-65
2022/07/07 08:13:14;;;;;;;7.35;2.80;;;12.40;94.10;;;;;;5034101;28;20029;-66
2022/07/07 08:15:42;;;;;;;5.28;1.55;;;12.40;94.30;;;;;;5033382;28;20025;-66
2022/07/07 08:18:09;;;;;;;8.27;1.50;;;12.30;94.10;;;;;;5029182;28;20098;-66
2022/07/07 08:20:37;;;;;;;4.90;1.45;;;12.30;93.90;;;;;;5026945;28;20410;-65
2022/07/07 08:23:04;;;;;;;4.55;1.10;;;12.20;94.00;;;;;;5035567;28;20181;-65
2022/07/07 08:25:33;;;;;;;3.78;0.90;;;12.10;94.10;;;;;;5037103;28;20072;-65
2022/07/07 08:28:01;;;;;;;3.33;1.40;;;12.10;94.00;;;;;;5038540;28;20047;-65
2022/07/07 08:30:28;;;;;;;1.70;0.85;;;12.00;93.70;;;;;;5047158;28;20039;-66
2022/07/07 08:32:55;;;;;;;3.47;0.98;;;12.00;93.90;;;;;;5027420;28;20025;-66
2022/07/07 08:35:23;;;;;;;4.05;1.30;;;11.90;93.90;;;;;;5036233;28;20057;-65
2022/07/07 08:37:50;;;;;;;3.22;1.50;;;11.80;94.10;;;;;;5042346;28;20110;-65
2022/07/07 08:40:17;;;;;;;4.53;1.23;;;11.80;94.50;;;;;;5044653;28;20029;-66
2022/07/07 08:42:44;;;;;;;1.75;0.82;;;11.60;93.90;;;;;;5038805;28;20065;-63
2022/07/07 08:45:12;;;;;;;3.70;1.35;;;11.50;94.40;;;;;;5039835;28;20029;-65
2022/07/07 08:47:40;;;;;;;2.53;1.35;;;11.40;94.50;;;;;;5029372;28;20568;-65
2022/07/07 08:50:08;;;;;;;3.47;1.10;;;11.30;94.40;;;;;;5028177;28;20033;-66
2022/07/07 08:52:35;;;;;;;3.15;1.08;;;11.20;94.80;;;;;;5030190;28;20095;-65
2022/07/07 08:55:03;;;;;;;4.40;1.02;;;11.20;94.70;;;;;;5029354;28;20033;-66
2022/07/07 08:57:30;;;;;;;4.18;2.05;;;11.10;94.80;;;;;;5024957;28;20033;-65
2022/07/07 08:59:57;;;;;;;7.63;1.27;;;11.00;95.20;;;;;;5026850;28;20029;-65
2022/07/07 09:02:25;;;;;;;4.50;1.38;;;11.00;95.50;;;;;;5034160;28;20065;-65
2022/07/07 09:04:52;;;;;;;4.45;1.55;;;11.00;95.90;;;;;;5038485;28;20025;-65
2022/07/07 09:07:20;;;;;;;2.97;1.50;;;11.10;96.00;;;;;;5034718;28;20091;-65
2022/07/07 09:09:55;;;;;;;10.85;1.98;;;11.00;95.90;;;;;;5039062;28;20029;-65
2022/07/07 09:12:22;;;;;;;3.50;1.65;;;11.00;95.80;;;;;;5028230;28;20108;-65
2022/07/07 09:14:55;;;;;;;6.97;2.33;;;11.00;95.50;;;;;;5042386;28;20029;-65
2022/07/07 09:17:33;;;;;;;3.97;2.13;;;11.00;95.70;;;;;;5042819;28;20057;-65
2022/07/07 09:20:07;;;;;;;2.72;1.73;;;10.90;95.50;;;;;;5027719;28;20049;-65
2022/07/07 09:22:46;;;;;;;3.80;1.80;;;10.90;95.70;;;;;;5029464;28;20093;-65
2022/07/07 09:25:19;;;;;;;2.58;1.73;;;10.80;95.60;;;;;;5031366;28;20495;-66
2022/07/07 09:28:03;;;;;;;2.58;0.90;;;10.70;95.50;;;;;;5049636;28;20051;-65
2022/07/07 09:30:37;;;;;;;2.70;1.67;;;10.80;96.20;;;;;;5049945;28;20029;-65
2022/07/07 09:33:08;;;;;;;4.20;1.65;;;10.80;96.20;;;;;;5045926;28;20938;-65
2022/07/07 09:38:24;;;;;;;5.32;2.20;;;10.60;95.70;;;;;;5033568;28;20120;-66
2022/07/07 09:41:08;;;;;;;3.15;1.73;;;10.40;95.70;;;;;;5040539;28;20028;-65
2022/07/07 09:43:51;;;;;;;7.10;5.30;;;10.30;95.20;;;;;;5046633;28;20028;-65
2022/07/07 09:46:19;;;;;;;5.45;4.00;;;10.20;96.20;;;;;;5035463;28;20520;-65
2022/07/07 09:48:52;;;;;;;6.80;3.58;;;10.10;96.50;;;;;;5043532;28;20034;-66
2022/07/07 09:51:28;;;;;;;7.30;3.83;;;10.00;96.30;;;;;;5031075;28;20510;-66
2022/07/07 09:54:06;;;;;;;8.43;3.53;;;9.90;95.90;;;;;;5045741;28;20501;-66
2022/07/07 09:56:44;;;;;;;5.45;3.60;;;9.70;96.20;;;;;;5047818;28;20813;-64
2022/07/07 09:59:21;;;;;;;4.07;2.28;;;9.60;96.20;;;;;;5049743;28;20077;-64
2022/07/07 10:01:50;;;;;;;5.82;2.10;;;9.50;96.40;;;;;;5048031;28;20060;-65
2022/07/07 10:04:22;;;;;;;3.72;2.22;;;9.40;96.60;;;;;;5030491;28;20586;-64
2022/07/07 10:06:49;;;;;;;5.75;2.13;;;9.30;96.60;;;;;;5046290;28;20424;-65
2022/07/07 10:09:24;;;;;;;5.30;1.98;;;9.40;98.10;;;;;;5041653;28;20032;-64
2022/07/07 10:11:53;;;;;;;8.32;2.35;;;9.40;98.00;;;;;;5039687;28;20071;-66
2022/07/07 10:14:35;;;;;;;6.57;2.47;;;9.60;98.20;;;;;;5048723;28;20700;-64
2022/07/07 10:17:04;;;;;;;3.10;1.73;;;9.50;97.70;;;;;;5038285;28;20136;-66
2022/07/07 10:19:31;;;;;;;3.42;2.28;;;9.50;97.80;;;;;;5030863;28;20036;-66
2022/07/07 10:21:59;;;;;;;8.35;2.40;;;9.40;98.00;;;;;;5030186;28;20045;-67
2022/07/07 10:24:29;;;;;;;2.78;1.63;;;9.40;97.30;;;;;;5029177;28;20022;-66
2022/07/07 10:27:01;;;;;;;2.20;1.58;;;9.20;97.00;;;;;;5029168;28;20371;-66
2022/07/07 10:29:41;;;;;;;4.38;2.30;;;9.00;96.60;;;;;;5043943;28;20021;-66
2022/07/07 10:32:33;;;;;;;4.53;2.40;;;8.80;96.60;;;;;;5034053;28;20457;-66
2022/07/07 10:35:08;;;;;;;4.25;2.22;;;8.80;97.00;;;;;;5047462;28;20033;-66
2022/07/07 10:37:47;;;;;;;5.63;2.70;;;8.70;97.10;;;;;;5048920;28;20071;-66
2022/07/07 10:40:19;;;;;;;6.10;2.78;;;8.50;97.20;;;;;;5044125;28;20061;-67
2022/07/07 10:43:15;;;;;;;7.13;2.95;;;8.50;97.60;;;;;;5039853;28;20433;-66
2022/07/07 10:45:46;;;;;;;5.65;2.28;;;8.50;97.70;;;;;;5029122;28;20550;-65
2022/07/07 10:48:42;;;;;;;3.50;2.05;;;8.50;97.70;;;;;;5044292;28;20049;-66
2022/07/07 10:51:21;;;;;;;6.78;1.95;;;8.60;96.90;;;;;;5038782;28;20022;-66
2022/07/07 10:54:02;;;;;;;3.63;1.55;;;8.60;95.50;;;;;;5033891;28;20043;-66
2022/07/07 10:56:53;;;;;;;2.35;1.10;;;8.60;94.50;;;;;;5045348;28;20402;-67
2022/07/07 10:59:24;;;;;;;2.22;1.00;;;8.70;93.00;;;;;;5036848;28;20025;-67
2022/07/07 11:02:04;;;;;;;2.63;1.15;;;8.70;92.30;;;;;;5048463;28;20052;-66
2022/07/07 11:04:47;;;;;;;2.65;1.10;;;8.80;91.70;;;;;;5037769;28;20037;-66
2022/07/07 11:07:17;;;;;;;3.63;1.20;;;8.90;90.90;;;;;;5029835;28;20042;-66
2022/07/07 11:10:01;;;;;;;2.55;1.00;;;9.00;89.60;;;;;;5034426;28;20025;-66
2022/07/07 11:12:41;;;;;;;3.92;0.70;;;9.20;87.80;;;;;;5039709;28;20029;-66
2022/07/07 11:15:21;;;;;;;0.82;0.60;;;9.30;87.00;;;;;;5035992;28;20029;-66
2022/07/07 11:18:07;;;;;;;0.90;0.60;;;9.40;85.30;;;;;;5026564;28;22041;-66
2022/07/07 11:20:35;;;;;;;1.88;1.05;;;9.40;84.80;;;;;;5035671;28;20029;-66
2022/07/07 11:23:13;;;;;;;0.82;0.45;;;9.50;83.00;;;;;;5039972;28;20032;-67
2022/07/07 11:25:42;;;;;;;2.35;0.73;;;9.60;82.70;;;;;;5057492;28;20381;-65
2022/07/07 11:28:10;;;;;;;1.50;0.50;;;9.60;82.50;;;;;;5038791;28;20120;-66
2022/07/07 11:30:41;;;;;;;1.15;0.55;;;9.50;82.40;;;;;;5049732;28;20105;-66
2022/07/07 11:33:09;;;;;;;1.08;0.60;;;9.50;82.10;;;;;;5035324;28;20039;-68
2022/07/07 11:35:40;;;;;;;1.17;0.60;;;9.40;82.70;;;;;;5056736;28;20438;-66
2022/07/07 11:38:12;;;;;;;1.17;0.77;;;9.40;82.50;;;;;;5049197;28;20087;-67
2022/07/07 11:40:42;;;;;;;1.80;1.00;;;9.30;83.00;;;;;;5061736;28;20033;-67
2022/07/07 11:43:29;;;;;;;2.50;0.68;;;9.30;83.30;;;;;;5052504;28;20028;-67
2022/07/07 11:45:57;;;;;;;2.60;0.60;;;9.30;82.50;;;;;;5049922;28;20086;-65
2022/07/07 11:48:24;;;;;;;1.88;0.50;;;9.30;82.20;;;;;;5052298;28;20033;-65
2022/07/07 11:50:51;;;;;;;1.23;0.60;;;9.40;82.10;;;;;;5046716;28;20060;-65
2022/07/07 11:53:23;;;;;;;3.53;0.73;;;9.30;82.10;;;;;;5036026;28;20021;-65
2022/07/07 11:55:51;;;;;;;1.58;0.40;;;9.20;82.40;;;;;;5042220;28;20033;-65
2022/07/07 11:58:18;;;;;;;1.38;0.63;;;9.30;82.10;;;;;;5051320;22;20887;-63
2022/07/07 12:00:45;;;;;;;2.67;1.50;;;9.30;82.10;;;;;;5020023;28;20042;-62
2022/07/07 12:03:13;;;;;;;5.88;1.25;;;9.20;82.70;;;;;;5022180;28;20025;-62
2022/07/07 12:05:46;;;;;;;3.05;1.15;;;9.10;84.00;;;;;;5008931;28;20033;-63
2022/07/07 12:08:15;;;;;;;2.78;1.13;;;9.00;83.90;;;;;;5021161;28;20127;-62
2022/07/07 12:10:53;;;;;;;2.08;0.73;;;8.90;84.10;;;;;;5024797;28;20030;-62
2022/07/07 12:13:20;;;;;;;3.75;1.88;;;8.90;83.80;;;;;;4997592;28;20033;-62
2022/07/07 12:15:50;;;;;;;4.35;1.58;;;8.80;84.80;;;;;;5011551;28;20061;-62
2022/07/07 12:18:41;;;;;;;4.10;1.10;;;8.80;85.10;;;;;;5008384;28;20170;-62
2022/07/07 12:21:15;;;;;;;3.03;1.15;;;8.80;85.30;;;;;;4998344;28;20048;-61
2022/07/07 12:23:45;;;;;;;2.67;1.15;;;8.70;85.80;;;;;;5013550;28;20029;-62
2022/07/07 12:26:15;;;;;;;4.05;1.17;;;8.60;86.60;;;;;;5017387;28;20049;-62
2022/07/07 12:28:43;;;;;;;4.50;1.02;;;8.50;87.00;;;;;;5013921;28;20069;-62
2022/07/07 12:31:21;;;;;;;1.70;0.95;;;8.40;87.60;;;;;;5014418;28;20026;-62
2022/07/07 12:33:48;;;;;;;3.13;0.98;;;8.40;88.10;;;;;;5009251;28;20042;-62
2022/07/07 12:36:23;;;;;;;2.05;0.80;;;8.30;89.10;;;;;;5014651;28;20018;-63
2022/07/07 12:38:57;;;;;;;3.08;0.88;;;8.30;88.00;;;;;;5010316;28;20045;-63
2022/07/07 12:41:32;;;;;;;2.55;1.00;;;8.30;88.30;;;;;;5027042;28;20022;-62
2022/07/07 12:44:14;;;;;;;1.73;0.90;;;8.20;88.40;;;;;;5016277;28;20049;-62
2022/07/07 12:46:43;;;;;;;3.42;1.08;;;8.10;88.20;;;;;;5028776;28;20049;-62
2022/07/07 12:49:11;;;;;;;2.85;1.25;;;8.00;88.70;;;;;;5010568;28;20418;-62
2022/07/07 12:51:41;;;;;;;3.35;1.85;;;7.80;89.20;;;;;;5006593;28;20029;-62
2022/07/07 12:54:28;;;;;;;3.40;1.35;;;7.70;90.00;;;;;;5023293;28;20410;-62
2022/07/07 12:57:08;;;;;;;13.57;1.60;;;7.60;89.90;;;;;;5011609;28;20075;-61
2022/07/07 12:59:45;;;;;;;3.55;1.27;;;7.40;90.00;;;;;;5009644;28;20061;-60
2022/07/07 13:02:14;;;;;;;5.55;1.65;;;7.30;90.30;;;;;;5020288;28;20105;-63
2022/07/07 13:04:42;;;;;;;4.10;1.27;;;7.20;90.30;;;;;;5012751;28;20045;-62